sensor_id;sensor_type;location;lat;lon;timestamp;pressure;altitude;pressure_sealevel;temperature;humidity
5609;BME280;2826;51.354;9.588;2023-07-30T00:01:58;97511.72;;;19.95;76.80
5609;BME280;2826;51.354;9.588;2023-07-30T00:04:27;97525.44;;;19.99;76.93
5609;BME280;2826;51.354;9.588;2023-07-30T00:06:53;97526.41;;;19.98;77.25
5609;BME280;2826;51.354;9.588;2023-07-30T00:09:20;97525.81;;;19.94;77.61
5609;BME280;2826;51.354;9.588;2023-07-30T00:11:47;97526.66;;;19.95;77.60
5609;BME280;2826;51.354;9.588;2023-07-30T00:14:14;97539.81;;;19.95;77.70
5609;BME280;2826;51.354;9.588;2023-07-30T00:16:40;97538.69;;;19.88;78.49
5609;BME280;2826;51.354;9.588;2023-07-30T00:19:07;97531.34;;;19.81;78.22
5609;BME280;2826;51.354;9.588;2023-07-30T00:21:35;97553.94;;;19.94;78.22
5609;BME280;2826;51.354;9.588;2023-07-30T00:24:02;97553.22;;;19.92;78.62
5609;BME280;2826;51.354;9.588;2023-07-30T00:26:29;97550.47;;;19.93;78.21
5609;BME280;2826;51.354;9.588;2023-07-30T00:28:56;97548.09;;;19.90;78.65
5609;BME280;2826;51.354;9.588;2023-07-30T00:31:22;97550.34;;;19.95;78.53
5609;BME280;2826;51.354;9.588;2023-07-30T00:33:49;97537.88;;;19.87;78.64
5609;BME280;2826;51.354;9.588;2023-07-30T00:36:16;97562.38;;;19.97;78.34
5609;BME280;2826;51.354;9.588;2023-07-30T00:38:44;97552.97;;;19.95;78.95
5609;BME280;2826;51.354;9.588;2023-07-30T00:41:11;97550.88;;;19.89;79.09
5609;BME280;2826;51.354;9.588;2023-07-30T00:43:39;97540.03;;;19.82;79.18
5609;BME280;2826;51.354;9.588;2023-07-30T00:46:06;97559.59;;;19.89;79.38
5609;BME280;2826;51.354;9.588;2023-07-30T00:48:33;97554.47;;;19.88;79.45
5609;BME280;2826;51.354;9.588;2023-07-30T00:51:00;97549.34;;;19.86;79.61
5609;BME280;2826;51.354;9.588;2023-07-30T00:53:27;97555.44;;;19.87;79.61
5609;BME280;2826;51.354;9.588;2023-07-30T00:55:55;97557.94;;;19.88;79.76
5609;BME280;2826;51.354;9.588;2023-07-30T00:58:23;97536.59;;;19.81;79.62
5609;BME280;2826;51.354;9.588;2023-07-30T01:00:51;97549.19;;;19.88;79.21
5609;BME280;2826;51.354;9.588;2023-07-30T01:03:19;97552.94;;;19.85;79.40
5609;BME280;2826;51.354;9.588;2023-07-30T01:05:45;97555.00;;;19.81;79.45
5609;BME280;2826;51.354;9.588;2023-07-30T01:08:12;97554.31;;;19.79;79.50
5609;BME280;2826;51.354;9.588;2023-07-30T01:10:40;97556.94;;;19.79;79.86
5609;BME280;2826;51.354;9.588;2023-07-30T01:13:09;97545.56;;;19.69;79.42
5609;BME280;2826;51.354;9.588;2023-07-30T01:15:37;97561.78;;;19.74;79.73
5609;BME280;2826;51.354;9.588;2023-07-30T01:18:04;97549.44;;;19.65;79.75
5609;BME280;2826;51.354;9.588;2023-07-30T01:20:31;97564.69;;;19.71;79.62
5609;BME280;2826;51.354;9.588;2023-07-30T01:22:59;97554.25;;;19.59;79.82
5609;BME280;2826;51.354;9.588;2023-07-30T01:25:28;97555.22;;;19.58;79.74
5609;BME280;2826;51.354;9.588;2023-07-30T01:27:59;97562.16;;;19.59;79.97
5609;BME280;2826;51.354;9.588;2023-07-30T01:30:30;97569.72;;;19.53;80.29
5609;BME280;2826;51.354;9.588;2023-07-30T01:32:58;97561.13;;;19.41;80.52
5609;BME280;2826;51.354;9.588;2023-07-30T01:35:27;97561.13;;;19.41;80.30
5609;BME280;2826;51.354;9.588;2023-07-30T01:37:55;97565.53;;;19.40;80.69
5609;BME280;2826;51.354;9.588;2023-07-30T01:40:23;97559.47;;;19.40;80.43
5609;BME280;2826;51.354;9.588;2023-07-30T01:42:50;97565.66;;;19.39;81.00
5609;BME280;2826;51.354;9.588;2023-07-30T01:45:17;97564.97;;;19.37;80.82
5609;BME280;2826;51.354;9.588;2023-07-30T01:47:44;97546.66;;;19.25;80.55
5609;BME280;2826;51.354;9.588;2023-07-30T01:50:11;97579.81;;;19.48;80.28
5609;BME280;2826;51.354;9.588;2023-07-30T01:52:38;97582.59;;;19.46;80.30
5609;BME280;2826;51.354;9.588;2023-07-30T01:55:06;97570.22;;;19.37;80.32
5609;BME280;2826;51.354;9.588;2023-07-30T01:57:34;97580.22;;;19.43;80.48
5609;BME280;2826;51.354;9.588;2023-07-30T02:00:01;97558.00;;;19.26;80.44
5609;BME280;2826;51.354;9.588;2023-07-30T02:02:28;97590.47;;;19.46;80.36
5609;BME280;2826;51.354;9.588;2023-07-30T02:04:55;97534.00;;;19.09;80.43
5609;BME280;2826;51.354;9.588;2023-07-30T02:07:22;97586.25;;;19.33;80.12
5609;BME280;2826;51.354;9.588;2023-07-30T02:09:49;97582.34;;;19.28;80.27
5609;BME280;2826;51.354;9.588;2023-07-30T02:12:16;97571.28;;;19.24;80.92
5609;BME280;2826;51.354;9.588;2023-07-30T02:14:44;97599.56;;;19.42;80.77
5609;BME280;2826;51.354;9.588;2023-07-30T02:17:11;97598.59;;;19.43;81.10
5609;BME280;2826;51.354;9.588;2023-07-30T02:19:38;97600.44;;;19.42;80.75
5609;BME280;2826;51.354;9.588;2023-07-30T02:22:05;97582.34;;;19.28;81.00
5609;BME280;2826;51.354;9.588;2023-07-30T02:24:32;97599.16;;;19.37;80.89
5609;BME280;2826;51.354;9.588;2023-07-30T02:26:59;97549.69;;;18.99;81.36
5609;BME280;2826;51.354;9.588;2023-07-30T02:29:27;97603.25;;;19.29;82.17
5609;BME280;2826;51.354;9.588;2023-07-30T02:31:56;97596.22;;;19.30;81.82
5609;BME280;2826;51.354;9.588;2023-07-30T02:34:22;97606.00;;;19.28;82.21
5609;BME280;2826;51.354;9.588;2023-07-30T02:36:49;97605.88;;;19.29;82.10
5609;BME280;2826;51.354;9.588;2023-07-30T02:39:16;97597.97;;;19.19;82.53
5609;BME280;2826;51.354;9.588;2023-07-30T02:41:43;97606.00;;;19.28;82.47
5609;BME280;2826;51.354;9.588;2023-07-30T02:44:10;97605.88;;;19.29;82.33
5609;BME280;2826;51.354;9.588;2023-07-30T02:46:37;97554.75;;;18.91;82.55
5609;BME280;2826;51.354;9.588;2023-07-30T02:49:05;97613.31;;;19.24;82.58
5609;BME280;2826;51.354;9.588;2023-07-30T02:51:32;97610.00;;;19.22;82.62
5609;BME280;2826;51.354;9.588;2023-07-30T02:53:59;97611.34;;;19.16;82.52
5609;BME280;2826;51.354;9.588;2023-07-30T02:56:30;97613.91;;;19.06;83.10
5609;BME280;2826;51.354;9.588;2023-07-30T02:58:58;97615.94;;;19.03;83.18
5609;BME280;2826;51.354;9.588;2023-07-30T03:01:25;97617.84;;;19.01;83.10
5609;BME280;2826;51.354;9.588;2023-07-30T03:03:52;97626.69;;;19.00;83.32
5609;BME280;2826;51.354;9.588;2023-07-30T03:06:20;97623.06;;;18.91;83.62
5609;BME280;2826;51.354;9.588;2023-07-30T03:08:47;97624.47;;;18.95;83.71
5609;BME280;2826;51.354;9.588;2023-07-30T03:11:14;97624.72;;;18.92;84.03
5609;BME280;2826;51.354;9.588;2023-07-30T03:13:40;97617.81;;;18.91;83.93
5609;BME280;2826;51.354;9.588;2023-07-30T03:16:07;97621.25;;;18.91;84.05
5609;BME280;2826;51.354;9.588;2023-07-30T03:18:34;97610.47;;;18.73;84.29
5609;BME280;2826;51.354;9.588;2023-07-30T03:21:01;97610.53;;;18.83;83.94
5609;BME280;2826;51.354;9.588;2023-07-30T03:23:30;97624.97;;;18.89;84.34
5609;BME280;2826;51.354;9.588;2023-07-30T03:25:57;97624.16;;;18.88;84.37
5609;BME280;2826;51.354;9.588;2023-07-30T03:28:25;97621.31;;;18.80;84.05
5609;BME280;2826;51.354;9.588;2023-07-30T03:30:53;97628.81;;;18.85;84.09
5609;BME280;2826;51.354;9.588;2023-07-30T03:33:20;97626.44;;;18.82;84.34
5609;BME280;2826;51.354;9.588;2023-07-30T03:35:47;97603.72;;;18.59;84.43
5609;BME280;2826;51.354;9.588;2023-07-30T03:38:13;97610.63;;;18.60;84.42
5609;BME280;2826;51.354;9.588;2023-07-30T03:40:42;97635.44;;;18.67;84.17
5609;BME280;2826;51.354;9.588;2023-07-30T03:43:09;97642.38;;;18.68;84.64
5609;BME280;2826;51.354;9.588;2023-07-30T03:45:36;97645.38;;;18.64;84.72
5609;BME280;2826;51.354;9.588;2023-07-30T03:48:03;97629.56;;;18.42;84.90
5609;BME280;2826;51.354;9.588;2023-07-30T03:50:29;97657.56;;;18.53;85.04
5609;BME280;2826;51.354;9.588;2023-07-30T03:52:56;97662.56;;;18.57;84.93
5609;BME280;2826;51.354;9.588;2023-07-30T03:55:23;97663.41;;;18.57;85.11
5609;BME280;2826;51.354;9.588;2023-07-30T03:57:51;97667.50;;;18.50;85.04
5609;BME280;2826;51.354;9.588;2023-07-30T04:00:18;97657.22;;;18.47;85.45
5609;BME280;2826;51.354;9.588;2023-07-30T04:02:45;97656.44;;;18.35;85.62
5609;BME280;2826;51.354;9.588;2023-07-30T04:05:11;97660.25;;;18.42;85.66
5609;BME280;2826;51.354;9.588;2023-07-30T04:07:38;97664.19;;;18.36;86.25
5609;BME280;2826;51.354;9.588;2023-07-30T04:10:05;97637.25;;;18.23;86.25
5609;BME280;2826;51.354;9.588;2023-07-30T04:12:32;97658.44;;;18.42;86.52
5609;BME280;2826;51.354;9.588;2023-07-30T04:15:00;97660.47;;;18.50;86.09
5609;BME280;2826;51.354;9.588;2023-07-30T04:17:27;97651.38;;;18.54;85.96
5609;BME280;2826;51.354;9.588;2023-07-30T04:19:54;97662.34;;;18.60;86.16
5609;BME280;2826;51.354;9.588;2023-07-30T04:22:20;97664.56;;;18.64;85.64
5609;BME280;2826;51.354;9.588;2023-07-30T04:24:47;97642.75;;;18.64;85.28
5609;BME280;2826;51.354;9.588;2023-07-30T04:27:14;97655.13;;;18.73;85.25
5609;BME280;2826;51.354;9.588;2023-07-30T04:29:41;97619.59;;;18.58;85.10
5609;BME280;2826;51.354;9.588;2023-07-30T04:32:09;97644.63;;;18.73;84.39
5609;BME280;2826;51.354;9.588;2023-07-30T04:34:36;97624.09;;;18.67;84.53
5609;BME280;2826;51.354;9.588;2023-07-30T04:37:03;97664.56;;;18.97;84.22
5609;BME280;2826;51.354;9.588;2023-07-30T04:39:32;97669.44;;;19.02;83.64
5609;BME280;2826;51.354;9.588;2023-07-30T04:41:59;97671.72;;;19.06;83.62
5609;BME280;2826;51.354;9.588;2023-07-30T04:44:26;97667.75;;;19.12;83.11
5609;BME280;2826;51.354;9.588;2023-07-30T04:46:59;97636.63;;;18.96;82.67
5609;BME280;2826;51.354;9.588;2023-07-30T04:49:27;97676.09;;;19.17;82.67
5609;BME280;2826;51.354;9.588;2023-07-30T04:51:54;97668.75;;;19.21;82.41
5609;BME280;2826;51.354;9.588;2023-07-30T04:54:20;97677.13;;;19.26;82.02
5609;BME280;2826;51.354;9.588;2023-07-30T04:56:47;97677.63;;;19.20;82.73
5609;BME280;2826;51.354;9.588;2023-07-30T04:59:14;97662.38;;;19.14;82.72
5609;BME280;2826;51.354;9.588;2023-07-30T05:01:41;97666.84;;;19.23;82.65
5609;BME280;2826;51.354;9.588;2023-07-30T05:04:08;97674.75;;;19.23;83.08
5609;BME280;2826;51.354;9.588;2023-07-30T05:06:36;97663.72;;;19.08;83.33
5609;BME280;2826;51.354;9.588;2023-07-30T05:09:02;97672.47;;;19.18;83.55
5609;BME280;2826;51.354;9.588;2023-07-30T05:11:29;97667.22;;;19.18;83.88
5609;BME280;2826;51.354;9.588;2023-07-30T05:13:56;97667.22;;;19.18;84.01
5609;BME280;2826;51.354;9.588;2023-07-30T05:16:23;97667.09;;;19.20;84.44
5609;BME280;2826;51.354;9.588;2023-07-30T05:18:50;97632.88;;;19.10;83.72
5609;BME280;2826;51.354;9.588;2023-07-30T05:21:16;97658.25;;;19.21;84.02
5609;BME280;2826;51.354;9.588;2023-07-30T05:23:44;97661.34;;;19.26;83.87
5609;BME280;2826;51.354;9.588;2023-07-30T05:26:11;97616.53;;;19.06;83.83
5609;BME280;2826;51.354;9.588;2023-07-30T05:28:38;97649.59;;;19.30;83.53
5609;BME280;2826;51.354;9.588;2023-07-30T05:31:04;97656.97;;;19.37;83.30
5609;BME280;2826;51.354;9.588;2023-07-30T05:33:31;97632.44;;;19.26;83.12
5609;BME280;2826;51.354;9.588;2023-07-30T05:35:58;97662.00;;;19.40;83.00
5609;BME280;2826;51.354;9.588;2023-07-30T05:38:24;97667.69;;;19.45;82.79
5609;BME280;2826;51.354;9.588;2023-07-30T05:40:52;97640.50;;;19.35;82.29
5609;BME280;2826;51.354;9.588;2023-07-30T05:43:19;97663.44;;;19.54;81.29
5609;BME280;2826;51.354;9.588;2023-07-30T05:45:46;97661.22;;;19.59;81.31
5609;BME280;2826;51.354;9.588;2023-07-30T05:48:13;97657.38;;;19.63;81.33
5609;BME280;2826;51.354;9.588;2023-07-30T05:50:39;97636.31;;;19.53;81.41
5609;BME280;2826;51.354;9.588;2023-07-30T05:53:06;97654.63;;;19.65;81.09
5609;BME280;2826;51.354;9.588;2023-07-30T05:55:33;97639.69;;;19.65;79.83
5609;BME280;2826;51.354;9.588;2023-07-30T05:58:01;97659.09;;;19.74;79.95
5609;BME280;2826;51.354;9.588;2023-07-30T06:00:27;97646.66;;;19.76;80.10
5609;BME280;2826;51.354;9.588;2023-07-30T06:02:54;97656.38;;;19.85;80.24
5609;BME280;2826;51.354;9.588;2023-07-30T06:05:21;97659.19;;;19.94;79.78
5609;BME280;2826;51.354;9.588;2023-07-30T06:07:48;97658.91;;;19.97;79.20
5609;BME280;2826;51.354;9.588;2023-07-30T06:10:14;97647.47;;;20.08;79.01
5609;BME280;2826;51.354;9.588;2023-07-30T06:12:41;97629.84;;;19.98;77.87
5609;BME280;2826;51.354;9.588;2023-07-30T06:15:10;97644.31;;;20.14;77.38
5609;BME280;2826;51.354;9.588;2023-07-30T06:17:36;97652.19;;;20.04;76.02
5609;BME280;2826;51.354;9.588;2023-07-30T06:20:04;97656.50;;;20.15;76.59
5609;BME280;2826;51.354;9.588;2023-07-30T06:22:46;97652.22;;;20.24;76.30
5609;BME280;2826;51.354;9.588;2023-07-30T06:25:12;97656.09;;;20.30;75.35
5609;BME280;2826;51.354;9.588;2023-07-30T06:27:39;97660.44;;;20.41;75.15
5609;BME280;2826;51.354;9.588;2023-07-30T06:30:06;97659.34;;;20.53;74.58
5609;BME280;2826;51.354;9.588;2023-07-30T06:32:44;97659.19;;;20.65;73.43
5609;BME280;2826;51.354;9.588;2023-07-30T06:35:10;97657.81;;;20.70;72.91
5609;BME280;2826;51.354;9.588;2023-07-30T06:37:37;97650.06;;;20.79;72.96
5609;BME280;2826;51.354;9.588;2023-07-30T06:40:05;97650.34;;;20.85;71.65
5609;BME280;2826;51.354;9.588;2023-07-30T06:42:32;97657.28;;;20.96;71.11
5609;BME280;2826;51.354;9.588;2023-07-30T06:44:59;97658.94;;;21.07;70.03
5609;BME280;2826;51.354;9.588;2023-07-30T06:47:25;97661.00;;;21.23;69.50
5609;BME280;2826;51.354;9.588;2023-07-30T06:49:53;97656.66;;;21.42;67.50
5609;BME280;2826;51.354;9.588;2023-07-30T06:52:20;97657.47;;;21.52;65.82
5609;BME280;2826;51.354;9.588;2023-07-30T06:54:46;97664.41;;;21.63;65.52
5609;BME280;2826;51.354;9.588;2023-07-30T06:57:13;97674.63;;;21.66;65.17
5609;BME280;2826;51.354;9.588;2023-07-30T06:59:39;97675.63;;;21.75;63.29
5609;BME280;2826;51.354;9.588;2023-07-30T07:02:06;97677.41;;;21.85;63.41
5609;BME280;2826;51.354;9.588;2023-07-30T07:04:33;97688.75;;;21.85;63.73
5609;BME280;2826;51.354;9.588;2023-07-30T07:07:01;97687.66;;;21.88;62.88
5609;BME280;2826;51.354;9.588;2023-07-30T07:09:28;97693.25;;;21.75;63.17
5609;BME280;2826;51.354;9.588;2023-07-30T07:11:55;97688.41;;;21.60;63.30
5609;BME280;2826;51.354;9.588;2023-07-30T07:14:22;97689.28;;;21.51;63.72
5609;BME280;2826;51.354;9.588;2023-07-30T07:16:48;97697.72;;;21.54;64.02
5609;BME280;2826;51.354;9.588;2023-07-30T07:19:15;97693.72;;;21.50;63.40
5609;BME280;2826;51.354;9.588;2023-07-30T07:21:41;97693.03;;;21.48;64.08
5609;BME280;2826;51.354;9.588;2023-07-30T07:24:10;97689.16;;;21.43;64.15
5609;BME280;2826;51.354;9.588;2023-07-30T07:26:36;97690.00;;;21.43;64.63
5609;BME280;2826;51.354;9.588;2023-07-30T07:29:02;97694.56;;;21.51;64.28
5609;BME280;2826;51.354;9.588;2023-07-30T07:31:28;97690.66;;;21.55;63.47
5609;BME280;2826;51.354;9.588;2023-07-30T07:33:55;97693.56;;;21.52;63.61
5609;BME280;2826;51.354;9.588;2023-07-30T07:36:21;97693.81;;;21.59;64.56
5609;BME280;2826;51.354;9.588;2023-07-30T07:38:48;97681.88;;;21.64;64.32
5609;BME280;2826;51.354;9.588;2023-07-30T07:41:16;97690.47;;;21.66;62.91
5609;BME280;2826;51.354;9.588;2023-07-30T07:43:44;97683.94;;;21.80;62.15
5609;BME280;2826;51.354;9.588;2023-07-30T07:46:10;97692.34;;;21.94;61.75
5609;BME280;2826;51.354;9.588;2023-07-30T07:48:40;97680.03;;;22.13;61.46
5609;BME280;2826;51.354;9.588;2023-07-30T07:51:07;97677.75;;;22.28;60.16
5609;BME280;2826;51.354;9.588;2023-07-30T07:53:33;97677.69;;;22.38;60.39
5609;BME280;2826;51.354;9.588;2023-07-30T07:56:00;97684.38;;;22.32;60.39
5609;BME280;2826;51.354;9.588;2023-07-30T07:58:28;97691.28;;;22.43;60.68
5609;BME280;2826;51.354;9.588;2023-07-30T08:00:55;97693.03;;;22.52;59.79
5609;BME280;2826;51.354;9.588;2023-07-30T08:03:22;97706.66;;;22.48;59.87
5609;BME280;2826;51.354;9.588;2023-07-30T08:05:49;97706.28;;;22.42;60.04
5609;BME280;2826;51.354;9.588;2023-07-30T08:08:16;97709.25;;;22.39;59.91
5609;BME280;2826;51.354;9.588;2023-07-30T08:10:43;97715.69;;;22.27;60.34
5609;BME280;2826;51.354;9.588;2023-07-30T08:13:12;97702.78;;;22.24;61.16
5609;BME280;2826;51.354;9.588;2023-07-30T08:15:40;97705.22;;;22.35;61.39
5609;BME280;2826;51.354;9.588;2023-07-30T08:18:07;97712.69;;;22.40;61.73
5609;BME280;2826;51.354;9.588;2023-07-30T08:20:34;97711.31;;;22.36;61.15
5609;BME280;2826;51.354;9.588;2023-07-30T08:23:00;97714.13;;;22.34;61.15
5609;BME280;2826;51.354;9.588;2023-07-30T08:25:27;97707.31;;;22.31;62.77
5609;BME280;2826;51.354;9.588;2023-07-30T08:27:53;97703.03;;;22.30;61.69
5609;BME280;2826;51.354;9.588;2023-07-30T08:30:20;97696.88;;;22.12;62.32
5609;BME280;2826;51.354;9.588;2023-07-30T08:32:48;97703.13;;;22.11;62.44
5609;BME280;2826;51.354;9.588;2023-07-30T08:35:15;97704.16;;;22.00;62.47
5609;BME280;2826;51.354;9.588;2023-07-30T08:37:42;97706.97;;;21.88;61.89
5609;BME280;2826;51.354;9.588;2023-07-30T08:40:09;97697.00;;;21.82;62.33
5609;BME280;2826;51.354;9.588;2023-07-30T08:42:36;97700.75;;;21.79;62.74
5609;BME280;2826;51.354;9.588;2023-07-30T08:45:05;97691.47;;;21.75;63.59
5609;BME280;2826;51.354;9.588;2023-07-30T08:47:33;97691.16;;;21.69;64.05
5609;BME280;2826;51.354;9.588;2023-07-30T08:50:01;97655.41;;;21.46;63.15
5609;BME280;2826;51.354;9.588;2023-07-30T08:52:29;97694.94;;;21.66;63.75
5609;BME280;2826;51.354;9.588;2023-07-30T08:54:57;97693.25;;;21.65;64.03
5609;BME280;2826;51.354;9.588;2023-07-30T08:57:28;97695.47;;;21.70;63.58
5609;BME280;2826;51.354;9.588;2023-07-30T09:00:02;97693.41;;;21.63;64.07
5609;BME280;2826;51.354;9.588;2023-07-30T09:02:34;97692.59;;;21.53;64.52
5609;BME280;2826;51.354;9.588;2023-07-30T09:05:04;97686.91;;;21.48;64.56
5609;BME280;2826;51.354;9.588;2023-07-30T09:07:31;97691.66;;;21.44;64.56
5609;BME280;2826;51.354;9.588;2023-07-30T09:09:58;97687.78;;;21.38;64.55
5609;BME280;2826;51.354;9.588;2023-07-30T09:12:29;97681.25;;;21.23;65.15
5609;BME280;2826;51.354;9.588;2023-07-30T09:14:55;97695.41;;;21.22;65.66
5609;BME280;2826;51.354;9.588;2023-07-30T09:17:22;97701.13;;;21.17;65.60
5609;BME280;2826;51.354;9.588;2023-07-30T09:19:49;97702.78;;;21.08;66.66
5609;BME280;2826;51.354;9.588;2023-07-30T09:22:24;97721.09;;;21.00;68.28
5609;BME280;2826;51.354;9.588;2023-07-30T09:24:52;97725.81;;;20.96;68.95
5609;BME280;2826;51.354;9.588;2023-07-30T09:27:20;97731.03;;;20.86;71.28
5609;BME280;2826;51.354;9.588;2023-07-30T09:29:51;97734.91;;;20.62;73.59
5609;BME280;2826;51.354;9.588;2023-07-30T09:32:18;97735.41;;;20.46;74.73
5609;BME280;2826;51.354;9.588;2023-07-30T09:34:45;97737.63;;;20.41;76.75
5609;BME280;2826;51.354;9.588;2023-07-30T09:37:12;97732.06;;;20.34;76.84
5609;BME280;2826;51.354;9.588;2023-07-30T09:39:40;97736.91;;;20.29;78.51
5609;BME280;2826;51.354;9.588;2023-07-30T09:42:07;97742.84;;;20.31;76.38
5609;BME280;2826;51.354;9.588;2023-07-30T09:44:36;97748.06;;;20.21;77.46
5609;BME280;2826;51.354;9.588;2023-07-30T09:47:04;97746.22;;;20.02;77.05
5609;BME280;2826;51.354;9.588;2023-07-30T09:49:31;97751.53;;;19.91;78.23
5609;BME280;2826;51.354;9.588;2023-07-30T09:51:58;97753.59;;;19.66;79.63
5609;BME280;2826;51.354;9.588;2023-07-30T09:54:25;97755.66;;;19.62;80.97
5609;BME280;2826;51.354;9.588;2023-07-30T09:56:54;97754.66;;;19.53;82.97
5609;BME280;2826;51.354;9.588;2023-07-30T09:59:21;97764.00;;;19.46;83.52
5609;BME280;2826;51.354;9.588;2023-07-30T10:01:49;97753.84;;;19.41;83.21
5609;BME280;2826;51.354;9.588;2023-07-30T10:04:19;97752.59;;;19.36;83.56
5609;BME280;2826;51.354;9.588;2023-07-30T10:06:49;97763.47;;;19.52;83.25
5609;BME280;2826;51.354;9.588;2023-07-30T10:09:19;97759.38;;;19.59;83.12
5609;BME280;2826;51.354;9.588;2023-07-30T10:11:49;97759.25;;;19.61;83.14
5609;BME280;2826;51.354;9.588;2023-07-30T10:14:21;97755.78;;;19.61;83.66
5609;BME280;2826;51.354;9.588;2023-07-30T10:16:53;97759.13;;;19.63;84.61
5609;BME280;2826;51.354;9.588;2023-07-30T10:19:23;97750.84;;;19.67;84.69
5609;BME280;2826;51.354;9.588;2023-07-30T10:21:50;97761.47;;;19.66;85.35
5609;BME280;2826;51.354;9.588;2023-07-30T10:24:17;97758.84;;;19.66;85.24
5609;BME280;2826;51.354;9.588;2023-07-30T10:26:43;97758.59;;;19.69;84.47
5609;BME280;2826;51.354;9.588;2023-07-30T10:29:12;97759.31;;;19.71;84.99
5609;BME280;2826;51.354;9.588;2023-07-30T10:31:40;97773.16;;;19.73;85.60
5609;BME280;2826;51.354;9.588;2023-07-30T10:34:08;97763.88;;;19.69;86.13
5609;BME280;2826;51.354;9.588;2023-07-30T10:36:40;97762.25;;;19.56;87.14
5609;BME280;2826;51.354;9.588;2023-07-30T10:39:13;97768.72;;;19.52;87.49
5609;BME280;2826;51.354;9.588;2023-07-30T10:41:40;97770.41;;;19.53;86.52
5609;BME280;2826;51.354;9.588;2023-07-30T10:44:06;97777.59;;;19.51;87.15
5609;BME280;2826;51.354;9.588;2023-07-30T10:46:33;97771.19;;;19.44;87.60
5609;BME280;2826;51.354;9.588;2023-07-30T10:49:03;97766.81;;;19.33;87.49
5609;BME280;2826;51.354;9.588;2023-07-30T10:51:32;97775.41;;;19.35;88.81
5609;BME280;2826;51.354;9.588;2023-07-30T10:53:59;97784.38;;;19.32;88.78
5609;BME280;2826;51.354;9.588;2023-07-30T10:56:26;97784.88;;;19.26;88.19
5609;BME280;2826;51.354;9.588;2023-07-30T10:58:54;97789.66;;;19.21;87.70
5609;BME280;2826;51.354;9.588;2023-07-30T11:01:24;97790.06;;;19.05;88.99
5609;BME280;2826;51.354;9.588;2023-07-30T11:03:52;97792.59;;;19.06;89.15
5609;BME280;2826;51.354;9.588;2023-07-30T11:06:24;97793.75;;;19.02;90.00
5609;BME280;2826;51.354;9.588;2023-07-30T11:08:50;97795.94;;;18.97;89.05
5609;BME280;2826;51.354;9.588;2023-07-30T11:11:17;97802.63;;;18.90;88.18
5609;BME280;2826;51.354;9.588;2023-07-30T11:13:45;97782.97;;;18.73;88.61
5609;BME280;2826;51.354;9.588;2023-07-30T11:16:13;97809.06;;;18.86;89.59
5609;BME280;2826;51.354;9.588;2023-07-30T11:18:41;97808.03;;;18.88;89.90
5609;BME280;2826;51.354;9.588;2023-07-30T11:21:09;97805.59;;;18.97;89.37
5609;BME280;2826;51.354;9.588;2023-07-30T11:23:38;97799.13;;;19.01;87.59
5609;BME280;2826;51.354;9.588;2023-07-30T11:26:07;97794.59;;;19.03;87.61
5609;BME280;2826;51.354;9.588;2023-07-30T11:28:35;97796.13;;;19.17;88.18
5609;BME280;2826;51.354;9.588;2023-07-30T11:31:03;97811.88;;;19.28;88.42
5609;BME280;2826;51.354;9.588;2023-07-30T11:33:30;97806.09;;;19.35;85.92
5609;BME280;2826;51.354;9.588;2023-07-30T11:36:00;97811.00;;;19.39;86.24
5609;BME280;2826;51.354;9.588;2023-07-30T11:38:27;97812.09;;;19.37;84.65
5609;BME280;2826;51.354;9.588;2023-07-30T11:40:55;97811.63;;;19.31;84.68
5609;BME280;2826;51.354;9.588;2023-07-30T11:43:23;97807.84;;;19.45;86.01
5609;BME280;2826;51.354;9.588;2023-07-30T11:46:06;97799.91;;;19.78;86.31
5609;BME280;2826;51.354;9.588;2023-07-30T11:48:33;97799.97;;;20.09;84.97
5609;BME280;2826;51.354;9.588;2023-07-30T11:50:59;97801.34;;;20.35;84.65
5609;BME280;2826;51.354;9.588;2023-07-30T11:53:44;97794.75;;;20.50;81.16
5609;BME280;2826;51.354;9.588;2023-07-30T11:56:17;97797.56;;;20.59;80.34
5609;BME280;2826;51.354;9.588;2023-07-30T11:58:43;97805.03;;;20.63;79.12
5609;BME280;2826;51.354;9.588;2023-07-30T12:01:10;97798.50;;;20.58;78.15
5609;BME280;2826;51.354;9.588;2023-07-30T12:03:37;97809.03;;;20.48;78.57
5609;BME280;2826;51.354;9.588;2023-07-30T12:06:04;97803.34;;;20.43;79.13
5609;BME280;2826;51.354;9.588;2023-07-30T12:08:33;97815.78;;;20.41;78.24
5609;BME280;2826;51.354;9.588;2023-07-30T12:11:03;97810.94;;;20.46;78.17
5609;BME280;2826;51.354;9.588;2023-07-30T12:13:32;97807.00;;;20.61;77.98
5609;BME280;2826;51.354;9.588;2023-07-30T12:15:58;97811.94;;;20.96;78.23
5609;BME280;2826;51.354;9.588;2023-07-30T12:18:26;97778.81;;;21.13;75.08
5609;BME280;2826;51.354;9.588;2023-07-30T12:20:54;97805.75;;;21.56;75.27
5609;BME280;2826;51.354;9.588;2023-07-30T12:23:21;97801.97;;;21.88;72.73
5609;BME280;2826;51.354;9.588;2023-07-30T12:25:48;97801.34;;;22.14;71.78
5609;BME280;2826;51.354;9.588;2023-07-30T12:28:14;97801.69;;;22.39;70.37
5609;BME280;2826;51.354;9.588;2023-07-30T12:30:42;97804.97;;;22.51;69.90
5609;BME280;2826;51.354;9.588;2023-07-30T12:33:09;97800.06;;;22.66;69.27
5609;BME280;2826;51.354;9.588;2023-07-30T12:35:35;97801.03;;;22.65;67.31
5609;BME280;2826;51.354;9.588;2023-07-30T12:38:02;97804.03;;;22.70;65.80
5609;BME280;2826;51.354;9.588;2023-07-30T12:40:29;97803.47;;;22.95;66.89
5609;BME280;2826;51.354;9.588;2023-07-30T12:43:00;97798.59;;;23.18;65.13
5609;BME280;2826;51.354;9.588;2023-07-30T12:45:27;97795.38;;;23.43;62.42
5609;BME280;2826;51.354;9.588;2023-07-30T12:47:55;97801.03;;;23.66;64.88
5609;BME280;2826;51.354;9.588;2023-07-30T12:50:21;97808.44;;;23.62;58.26
5609;BME280;2826;51.354;9.588;2023-07-30T12:52:48;97803.22;;;23.34;59.68
5609;BME280;2826;51.354;9.588;2023-07-30T12:55:15;97817.25;;;23.17;62.26
5609;BME280;2826;51.354;9.588;2023-07-30T12:57:41;97820.00;;;23.07;62.20
5609;BME280;2826;51.354;9.588;2023-07-30T13:00:08;97811.88;;;23.08;61.44
5609;BME280;2826;51.354;9.588;2023-07-30T13:02:36;97826.78;;;23.09;61.81
5609;BME280;2826;51.354;9.588;2023-07-30T13:05:05;97819.22;;;23.15;61.23
5609;BME280;2826;51.354;9.588;2023-07-30T13:07:32;97819.03;;;23.62;59.61
5609;BME280;2826;51.354;9.588;2023-07-30T13:10:03;97806.22;;;24.02;57.17
5609;BME280;2826;51.354;9.588;2023-07-30T13:12:33;97789.13;;;23.97;57.31
5609;BME280;2826;51.354;9.588;2023-07-30T13:15:00;97810.25;;;24.42;57.27
5609;BME280;2826;51.354;9.588;2023-07-30T13:17:27;97786.72;;;24.73;57.13
5609;BME280;2826;51.354;9.588;2023-07-30T13:19:53;97801.06;;;25.05;53.29
5609;BME280;2826;51.354;9.588;2023-07-30T13:22:21;97794.81;;;25.40;51.56
5609;BME280;2826;51.354;9.588;2023-07-30T13:24:48;97792.00;;;25.41;47.60